sensor_id;sensor_type;location;lat;lon;timestamp;P1;durP1;ratioP1;P2;durP2;ratioP2
17201;SDS011;8717;53.588;10.176;2022-09-06T00:00:37;2.30;;;1.10;;
17201;SDS011;8717;53.588;10.176;2022-09-06T00:03:05;2.37;;;1.07;;
17201;SDS011;8717;53.588;10.176;2022-09-06T00:05:33;2.53;;;1.13;;
17201;SDS011;8717;53.588;10.176;2022-09-06T00:08:01;3.57;;;1.20;;
17201;SDS011;8717;53.588;10.176;2022-09-06T00:10:29;2.53;;;1.03;;
17201;SDS011;8717;53.588;10.176;2022-09-06T00:12:58;2.67;;;1.27;;
17201;SDS011;8717;53.588;10.176;2022-09-06T00:15:27;3.63;;;1.10;;
17201;SDS011;8717;53.588;10.176;2022-09-06T00:17:56;1.60;;;0.87;;
17201;SDS011;8717;53.588;10.176;2022-09-06T00:20:23;2.33;;;1.20;;
17201;SDS011;8717;53.588;10.176;2022-09-06T00:22:52;3.60;;;1.27;;
17201;SDS011;8717;53.588;10.176;2022-09-06T00:25:21;3.37;;;0.97;;
17201;SDS011;8717;53.588;10.176;2022-09-06T00:27:51;4.07;;;1.27;;
17201;SDS011;8717;53.588;10.176;2022-09-06T00:30:19;1.90;;;1.10;;
17201;SDS011;8717;53.588;10.176;2022-09-06T00:32:45;4.33;;;1.10;;
17201;SDS011;8717;53.588;10.176;2022-09-06T00:35:12;1.80;;;1.00;;
17201;SDS011;8717;53.588;10.176;2022-09-06T00:37:39;4.87;;;1.00;;
17201;SDS011;8717;53.588;10.176;2022-09-06T00:40:07;3.10;;;1.37;;
17201;SDS011;8717;53.588;10.176;2022-09-06T00:42:34;3.80;;;1.00;;
17201;SDS011;8717;53.588;10.176;2022-09-06T00:45:02;2.10;;;1.20;;
17201;SDS011;8717;53.588;10.176;2022-09-06T00:47:30;2.70;;;1.10;;
17201;SDS011;8717;53.588;10.176;2022-09-06T00:49:57;2.80;;;1.30;;
17201;SDS011;8717;53.588;10.176;2022-09-06T00:52:25;2.77;;;1.10;;
17201;SDS011;8717;53.588;10.176;2022-09-06T00:54:56;1.93;;;1.00;;
17201;SDS011;8717;53.588;10.176;2022-09-06T00:57:26;1.43;;;1.00;;
17201;SDS011;8717;53.588;10.176;2022-09-06T00:59:56;2.30;;;1.00;;
17201;SDS011;8717;53.588;10.176;2022-09-06T01:02:24;3.30;;;1.60;;
17201;SDS011;8717;53.588;10.176;2022-09-06T01:04:51;2.50;;;1.20;;
17201;SDS011;8717;53.588;10.176;2022-09-06T01:07:21;3.63;;;1.50;;
17201;SDS011;8717;53.588;10.176;2022-09-06T01:10:04;3.33;;;1.23;;
17201;SDS011;8717;53.588;10.176;2022-09-06T01:12:46;2.87;;;1.50;;
17201;SDS011;8717;53.588;10.176;2022-09-06T01:15:25;2.57;;;1.27;;
17201;SDS011;8717;53.588;10.176;2022-09-06T01:18:04;1.70;;;1.10;;
17201;SDS011;8717;53.588;10.176;2022-09-06T01:26:44;2.00;;;1.10;;
17201;SDS011;8717;53.588;10.176;2022-09-06T01:29:38;3.07;;;1.00;;
17201;SDS011;8717;53.588;10.176;2022-09-06T01:32:09;2.20;;;1.17;;
17201;SDS011;8717;53.588;10.176;2022-09-06T01:34:43;2.83;;;1.37;;
17201;SDS011;8717;53.588;10.176;2022-09-06T01:37:18;3.80;;;1.20;;
17201;SDS011;8717;53.588;10.176;2022-09-06T01:39:47;2.10;;;1.30;;
17201;SDS011;8717;53.588;10.176;2022-09-06T01:42:14;3.30;;;1.30;;
17201;SDS011;8717;53.588;10.176;2022-09-06T01:44:46;2.37;;;1.10;;
17201;SDS011;8717;53.588;10.176;2022-09-06T01:47:21;2.53;;;1.40;;
17201;SDS011;8717;53.588;10.176;2022-09-06T01:49:58;3.00;;;1.20;;
17201;SDS011;8717;53.588;10.176;2022-09-06T01:52:42;2.80;;;1.30;;
17201;SDS011;8717;53.588;10.176;2022-09-06T01:55:20;1.13;;;1.03;;
17201;SDS011;8717;53.588;10.176;2022-09-06T01:57:56;4.67;;;1.43;;
17201;SDS011;8717;53.588;10.176;2022-09-06T02:00:39;2.30;;;1.30;;
17201;SDS011;8717;53.588;10.176;2022-09-06T02:03:12;3.17;;;1.17;;
17201;SDS011;8717;53.588;10.176;2022-09-06T02:05:48;2.00;;;1.27;;
17201;SDS011;8717;53.588;10.176;2022-09-06T02:08:20;2.47;;;1.30;;
17201;SDS011;8717;53.588;10.176;2022-09-06T02:10:52;5.10;;;1.37;;
17201;SDS011;8717;53.588;10.176;2022-09-06T02:13:23;1.73;;;1.20;;
17201;SDS011;8717;53.588;10.176;2022-09-06T02:15:55;2.37;;;1.30;;
17201;SDS011;8717;53.588;10.176;2022-09-06T02:18:26;5.17;;;1.13;;
17201;SDS011;8717;53.588;10.176;2022-09-06T02:20:56;3.20;;;1.27;;
17201;SDS011;8717;53.588;10.176;2022-09-06T02:23:26;2.30;;;1.00;;
17201;SDS011;8717;53.588;10.176;2022-09-06T02:25:56;2.30;;;1.27;;
17201;SDS011;8717;53.588;10.176;2022-09-06T02:28:27;5.30;;;1.30;;
17201;SDS011;8717;53.588;10.176;2022-09-06T02:30:56;2.70;;;1.27;;
17201;SDS011;8717;53.588;10.176;2022-09-06T02:33:26;3.80;;;1.10;;
17201;SDS011;8717;53.588;10.176;2022-09-06T02:35:56;2.60;;;1.30;;
17201;SDS011;8717;53.588;10.176;2022-09-06T02:38:29;2.87;;;1.30;;
17201;SDS011;8717;53.588;10.176;2022-09-06T02:40:58;2.80;;;1.33;;
17201;SDS011;8717;53.588;10.176;2022-09-06T02:43:25;2.10;;;1.20;;
17201;SDS011;8717;53.588;10.176;2022-09-06T02:45:52;2.07;;;1.10;;
17201;SDS011;8717;53.588;10.176;2022-09-06T02:48:20;3.40;;;1.33;;
17201;SDS011;8717;53.588;10.176;2022-09-06T02:50:47;2.57;;;1.40;;
17201;SDS011;8717;53.588;10.176;2022-09-06T02:53:13;1.80;;;1.27;;
17201;SDS011;8717;53.588;10.176;2022-09-06T02:55:41;3.40;;;1.00;;
17201;SDS011;8717;53.588;10.176;2022-09-06T02:58:08;2.03;;;1.17;;
17201;SDS011;8717;53.588;10.176;2022-09-06T03:00:36;2.60;;;1.20;;
17201;SDS011;8717;53.588;10.176;2022-09-06T03:03:03;1.80;;;1.17;;
17201;SDS011;8717;53.588;10.176;2022-09-06T03:05:32;1.40;;;1.30;;
17201;SDS011;8717;53.588;10.176;2022-09-06T03:07:58;1.67;;;1.40;;
17201;SDS011;8717;53.588;10.176;2022-09-06T03:10:25;2.30;;;1.30;;
17201;SDS011;8717;53.588;10.176;2022-09-06T03:12:52;3.33;;;1.30;;
17201;SDS011;8717;53.588;10.176;2022-09-06T03:15:18;2.60;;;1.00;;
17201;SDS011;8717;53.588;10.176;2022-09-06T03:17:45;3.40;;;1.30;;
17201;SDS011;8717;53.588;10.176;2022-09-06T03:20:12;2.80;;;1.33;;
17201;SDS011;8717;53.588;10.176;2022-09-06T03:22:40;3.40;;;1.07;;
17201;SDS011;8717;53.588;10.176;2022-09-06T03:25:08;2.57;;;1.50;;
17201;SDS011;8717;53.588;10.176;2022-09-06T03:27:35;6.17;;;1.50;;
17201;SDS011;8717;53.588;10.176;2022-09-06T03:30:03;2.27;;;1.10;;
17201;SDS011;8717;53.588;10.176;2022-09-06T03:32:31;4.87;;;1.40;;
17201;SDS011;8717;53.588;10.176;2022-09-06T03:34:57;3.57;;;1.50;;
17201;SDS011;8717;53.588;10.176;2022-09-06T03:37:24;4.30;;;1.40;;
17201;SDS011;8717;53.588;10.176;2022-09-06T03:39:52;2.00;;;1.40;;
17201;SDS011;8717;53.588;10.176;2022-09-06T03:42:20;2.40;;;1.23;;
17201;SDS011;8717;53.588;10.176;2022-09-06T03:44:47;2.73;;;1.30;;
17201;SDS011;8717;53.588;10.176;2022-09-06T03:47:13;2.97;;;1.60;;
17201;SDS011;8717;53.588;10.176;2022-09-06T03:49:40;2.60;;;1.27;;
17201;SDS011;8717;53.588;10.176;2022-09-06T03:52:06;2.00;;;1.30;;
17201;SDS011;8717;53.588;10.176;2022-09-06T03:54:33;2.87;;;1.67;;
17201;SDS011;8717;53.588;10.176;2022-09-06T03:57:01;1.43;;;1.03;;
17201;SDS011;8717;53.588;10.176;2022-09-06T03:59:28;1.63;;;1.30;;
17201;SDS011;8717;53.588;10.176;2022-09-06T04:01:55;2.77;;;1.20;;
17201;SDS011;8717;53.588;10.176;2022-09-06T04:04:21;2.60;;;1.00;;
17201;SDS011;8717;53.588;10.176;2022-09-06T04:06:48;3.03;;;1.57;;
17201;SDS011;8717;53.588;10.176;2022-09-06T04:09:15;2.13;;;1.27;;
17201;SDS011;8717;53.588;10.176;2022-09-06T04:11:42;1.77;;;1.20;;
17201;SDS011;8717;53.588;10.176;2022-09-06T04:14:10;2.87;;;1.10;;
17201;SDS011;8717;53.588;10.176;2022-09-06T04:16:36;2.60;;;1.37;;
17201;SDS011;8717;53.588;10.176;2022-09-06T04:19:03;1.30;;;1.07;;
17201;SDS011;8717;53.588;10.176;2022-09-06T04:21:30;3.10;;;1.30;;
17201;SDS011;8717;53.588;10.176;2022-09-06T04:23:57;3.33;;;1.33;;
17201;SDS011;8717;53.588;10.176;2022-09-06T04:26:24;4.13;;;1.10;;
17201;SDS011;8717;53.588;10.176;2022-09-06T04:28:50;1.80;;;1.00;;
17201;SDS011;8717;53.588;10.176;2022-09-06T04:31:18;4.40;;;1.17;;
17201;SDS011;8717;53.588;10.176;2022-09-06T04:33:45;3.47;;;1.20;;
17201;SDS011;8717;53.588;10.176;2022-09-06T04:36:12;4.60;;;1.10;;
17201;SDS011;8717;53.588;10.176;2022-09-06T04:38:39;1.40;;;1.13;;
17201;SDS011;8717;53.588;10.176;2022-09-06T04:41:07;2.67;;;1.20;;
17201;SDS011;8717;53.588;10.176;2022-09-06T04:43:34;1.80;;;1.30;;
17201;SDS011;8717;53.588;10.176;2022-09-06T04:46:02;2.70;;;1.30;;
17201;SDS011;8717;53.588;10.176;2022-09-06T04:48:31;2.67;;;1.00;;
17201;SDS011;8717;53.588;10.176;2022-09-06T04:50:58;2.07;;;1.40;;
17201;SDS011;8717;53.588;10.176;2022-09-06T04:53:24;5.57;;;1.10;;
17201;SDS011;8717;53.588;10.176;2022-09-06T04:55:51;1.77;;;1.00;;
17201;SDS011;8717;53.588;10.176;2022-09-06T04:58:18;1.87;;;1.20;;
17201;SDS011;8717;53.588;10.176;2022-09-06T05:00:45;2.70;;;0.93;;
17201;SDS011;8717;53.588;10.176;2022-09-06T05:03:11;1.77;;;1.20;;
17201;SDS011;8717;53.588;10.176;2022-09-06T05:05:41;1.67;;;1.10;;
17201;SDS011;8717;53.588;10.176;2022-09-06T05:08:07;4.13;;;1.10;;
17201;SDS011;8717;53.588;10.176;2022-09-06T05:10:34;2.50;;;1.10;;
17201;SDS011;8717;53.588;10.176;2022-09-06T05:13:01;3.60;;;1.17;;
17201;SDS011;8717;53.588;10.176;2022-09-06T05:15:27;4.50;;;1.30;;
17201;SDS011;8717;53.588;10.176;2022-09-06T05:17:59;2.43;;;1.10;;
17201;SDS011;8717;53.588;10.176;2022-09-06T05:20:27;1.30;;;1.07;;
17201;SDS011;8717;53.588;10.176;2022-09-06T05:22:55;4.40;;;1.30;;
17201;SDS011;8717;53.588;10.176;2022-09-06T05:25:22;2.23;;;1.10;;
17201;SDS011;8717;53.588;10.176;2022-09-06T05:27:49;4.90;;;1.07;;
17201;SDS011;8717;53.588;10.176;2022-09-06T05:30:16;1.10;;;1.00;;
17201;SDS011;8717;53.588;10.176;2022-09-06T05:32:43;2.57;;;1.00;;
17201;SDS011;8717;53.588;10.176;2022-09-06T05:35:10;2.30;;;1.00;;
17201;SDS011;8717;53.588;10.176;2022-09-06T05:37:37;2.10;;;0.87;;
17201;SDS011;8717;53.588;10.176;2022-09-06T05:40:06;3.00;;;1.00;;
17201;SDS011;8717;53.588;10.176;2022-09-06T05:42:33;4.30;;;0.87;;
17201;SDS011;8717;53.588;10.176;2022-09-06T05:45:00;1.23;;;0.93;;
17201;SDS011;8717;53.588;10.176;2022-09-06T05:47:26;2.10;;;0.90;;
17201;SDS011;8717;53.588;10.176;2022-09-06T05:49:55;0.90;;;0.70;;
17201;SDS011;8717;53.588;10.176;2022-09-06T05:52:21;2.10;;;0.80;;
17201;SDS011;8717;53.588;10.176;2022-09-06T05:54:48;2.00;;;0.90;;
17201;SDS011;8717;53.588;10.176;2022-09-06T05:57:16;1.53;;;1.00;;
17201;SDS011;8717;53.588;10.176;2022-09-06T05:59:43;1.47;;;0.90;;
17201;SDS011;8717;53.588;10.176;2022-09-06T06:02:09;1.63;;;0.90;;
17201;SDS011;8717;53.588;10.176;2022-09-06T06:04:36;3.57;;;1.20;;
17201;SDS011;8717;53.588;10.176;2022-09-06T06:07:03;2.57;;;0.93;;
17201;SDS011;8717;53.588;10.176;2022-09-06T06:09:29;4.87;;;0.90;;
17201;SDS011;8717;53.588;10.176;2022-09-06T06:11:57;3.17;;;0.90;;
17201;SDS011;8717;53.588;10.176;2022-09-06T06:14:25;2.87;;;0.80;;
17201;SDS011;8717;53.588;10.176;2022-09-06T06:16:51;3.33;;;0.90;;
17201;SDS011;8717;53.588;10.176;2022-09-06T06:19:18;2.57;;;1.03;;
17201;SDS011;8717;53.588;10.176;2022-09-06T06:21:45;1.67;;;0.80;;
17201;SDS011;8717;53.588;10.176;2022-09-06T06:24:11;3.10;;;0.80;;
17201;SDS011;8717;53.588;10.176;2022-09-06T06:26:38;2.13;;;0.80;;
17201;SDS011;8717;53.588;10.176;2022-09-06T06:29:05;2.17;;;1.00;;
17201;SDS011;8717;53.588;10.176;2022-09-06T06:31:35;1.37;;;0.90;;
17201;SDS011;8717;53.588;10.176;2022-09-06T06:34:03;6.37;;;1.00;;
17201;SDS011;8717;53.588;10.176;2022-09-06T06:36:30;2.60;;;1.00;;
17201;SDS011;8717;53.588;10.176;2022-09-06T06:38:58;2.97;;;1.10;;
17201;SDS011;8717;53.588;10.176;2022-09-06T06:41:26;2.10;;;1.13;;
17201;SDS011;8717;53.588;10.176;2022-09-06T06:43:57;1.10;;;0.80;;
17201;SDS011;8717;53.588;10.176;2022-09-06T06:46:25;3.13;;;0.87;;
17201;SDS011;8717;53.588;10.176;2022-09-06T06:48:55;2.97;;;1.00;;
17201;SDS011;8717;53.588;10.176;2022-09-06T06:51:22;1.60;;;0.87;;
17201;SDS011;8717;53.588;10.176;2022-09-06T06:53:50;1.63;;;1.03;;
17201;SDS011;8717;53.588;10.176;2022-09-06T06:56:17;2.63;;;0.83;;
17201;SDS011;8717;53.588;10.176;2022-09-06T06:58:46;3.63;;;1.30;;
17201;SDS011;8717;53.588;10.176;2022-09-06T07:01:14;5.07;;;1.10;;
17201;SDS011;8717;53.588;10.176;2022-09-06T07:03:41;1.50;;;1.10;;
17201;SDS011;8717;53.588;10.176;2022-09-06T07:06:09;4.67;;;0.90;;
17201;SDS011;8717;53.588;10.176;2022-09-06T07:08:35;3.80;;;0.83;;
17201;SDS011;8717;53.588;10.176;2022-09-06T07:11:03;2.00;;;1.07;;
17201;SDS011;8717;53.588;10.176;2022-09-06T07:13:30;2.80;;;1.03;;
17201;SDS011;8717;53.588;10.176;2022-09-06T07:16:05;2.83;;;1.20;;
17201;SDS011;8717;53.588;10.176;2022-09-06T07:18:32;3.50;;;1.10;;
17201;SDS011;8717;53.588;10.176;2022-09-06T07:21:00;5.87;;;1.27;;
17201;SDS011;8717;53.588;10.176;2022-09-06T07:23:29;3.83;;;0.97;;
17201;SDS011;8717;53.588;10.176;2022-09-06T07:25:56;3.10;;;0.97;;
17201;SDS011;8717;53.588;10.176;2022-09-06T07:28:22;3.67;;;1.00;;
17201;SDS011;8717;53.588;10.176;2022-09-06T07:30:51;2.77;;;1.00;;
17201;SDS011;8717;53.588;10.176;2022-09-06T07:33:18;1.43;;;0.90;;
17201;SDS011;8717;53.588;10.176;2022-09-06T07:35:52;2.13;;;1.17;;
17201;SDS011;8717;53.588;10.176;2022-09-06T07:38:23;2.80;;;1.30;;
17201;SDS011;8717;53.588;10.176;2022-09-06T07:40:55;2.60;;;1.37;;
17201;SDS011;8717;53.588;10.176;2022-09-06T07:43:23;2.97;;;1.13;;
17201;SDS011;8717;53.588;10.176;2022-09-06T07:45:56;3.70;;;1.10;;
17201;SDS011;8717;53.588;10.176;2022-09-06T07:48:24;3.93;;;1.23;;
17201;SDS011;8717;53.588;10.176;2022-09-06T07:50:52;5.40;;;1.10;;
17201;SDS011;8717;53.588;10.176;2022-09-06T07:53:19;3.13;;;1.40;;
17201;SDS011;8717;53.588;10.176;2022-09-06T07:55:46;2.27;;;1.20;;
17201;SDS011;8717;53.588;10.176;2022-09-06T07:58:14;3.45;;;1.00;;
17201;SDS011;8717;53.588;10.176;2022-09-06T08:00:40;1.63;;;1.00;;
17201;SDS011;8717;53.588;10.176;2022-09-06T08:03:07;1.67;;;1.10;;
17201;SDS011;8717;53.588;10.176;2022-09-06T08:05:34;2.20;;;1.10;;
17201;SDS011;8717;53.588;10.176;2022-09-06T08:08:01;2.42;;;0.90;;
17201;SDS011;8717;53.588;10.176;2022-09-06T08:10:28;1.60;;;1.00;;
17201;SDS011;8717;53.588;10.176;2022-09-06T08:12:54;4.80;;;1.20;;
17201;SDS011;8717;53.588;10.176;2022-09-06T08:15:22;3.37;;;1.20;;
17201;SDS011;8717;53.588;10.176;2022-09-06T08:17:49;2.35;;;1.02;;
17201;SDS011;8717;53.588;10.176;2022-09-06T08:20:16;3.05;;;1.20;;
17201;SDS011;8717;53.588;10.176;2022-09-06T08:22:43;3.58;;;1.20;;
17201;SDS011;8717;53.588;10.176;2022-09-06T08:25:10;4.32;;;1.33;;
17201;SDS011;8717;53.588;10.176;2022-09-06T08:27:36;3.70;;;1.13;;
17201;SDS011;8717;53.588;10.176;2022-09-06T08:30:04;4.53;;;1.17;;
17201;SDS011;8717;53.588;10.176;2022-09-06T08:32:33;5.82;;;1.42;;
17201;SDS011;8717;53.588;10.176;2022-09-06T08:35:02;5.25;;;1.50;;
17201;SDS011;8717;53.588;10.176;2022-09-06T08:37:29;1.80;;;1.10;;
17201;SDS011;8717;53.588;10.176;2022-09-06T08:39:56;1.85;;;1.25;;
17201;SDS011;8717;53.588;10.176;2022-09-06T08:42:23;4.43;;;1.30;;
17201;SDS011;8717;53.588;10.176;2022-09-06T08:44:50;3.83;;;1.38;;
17201;SDS011;8717;53.588;10.176;2022-09-06T08:47:19;2.80;;;1.10;;
17201;SDS011;8717;53.588;10.176;2022-09-06T08:49:49;3.80;;;1.10;;
17201;SDS011;8717;53.588;10.176;2022-09-06T08:52:21;2.92;;;1.40;;
17201;SDS011;8717;53.588;10.176;2022-09-06T08:55:09;6.50;;;1.55;;
17201;SDS011;8717;53.588;10.176;2022-09-06T08:57:44;3.97;;;1.70;;
17201;SDS011;8717;53.588;10.176;2022-09-06T09:00:24;2.55;;;1.52;;
17201;SDS011;8717;53.588;10.176;2022-09-06T09:02:52;5.03;;;1.35;;
17201;SDS011;8717;53.588;10.176;2022-09-06T09:05:26;4.15;;;1.17;;
17201;SDS011;8717;53.588;10.176;2022-09-06T09:07:59;3.20;;;1.38;;
17201;SDS011;8717;53.588;10.176;2022-09-06T09:10:30;2.65;;;1.30;;
17201;SDS011;8717;53.588;10.176;2022-09-06T09:13:05;5.38;;;1.40;;
17201;SDS011;8717;53.588;10.176;2022-09-06T09:15:34;4.00;;;1.30;;
17201;SDS011;8717;53.588;10.176;2022-09-06T09:18:01;6.88;;;1.70;;
17201;SDS011;8717;53.588;10.176;2022-09-06T09:20:30;4.75;;;1.33;;
17201;SDS011;8717;53.588;10.176;2022-09-06T09:22:57;2.65;;;1.38;;
17201;SDS011;8717;53.588;10.176;2022-09-06T09:25:24;3.88;;;1.45;;
17201;SDS011;8717;53.588;10.176;2022-09-06T09:27:51;3.38;;;1.50;;
17201;SDS011;8717;53.588;10.176;2022-09-06T09:30:22;4.25;;;1.70;;
17201;SDS011;8717;53.588;10.176;2022-09-06T09:32:49;4.13;;;1.75;;
17201;SDS011;8717;53.588;10.176;2022-09-06T09:35:17;4.40;;;1.45;;
17201;SDS011;8717;53.588;10.176;2022-09-06T09:37:47;5.45;;;1.42;;
17201;SDS011;8717;53.588;10.176;2022-09-06T09:40:27;2.58;;;1.27;;
17201;SDS011;8717;53.588;10.176;2022-09-06T09:42:56;2.33;;;1.52;;
17201;SDS011;8717;53.588;10.176;2022-09-06T09:45:35;4.22;;;2.13;;
17201;SDS011;8717;53.588;10.176;2022-09-06T09:48:14;3.47;;;1.80;;
17201;SDS011;8717;53.588;10.176;2022-09-06T09:50:44;2.70;;;1.42;;
17201;SDS011;8717;53.588;10.176;2022-09-06T09:53:13;4.43;;;1.70;;
17201;SDS011;8717;53.588;10.176;2022-09-06T09:55:41;2.95;;;1.40;;
17201;SDS011;8717;53.588;10.176;2022-09-06T09:58:16;5.25;;;1.67;;
17201;SDS011;8717;53.588;10.176;2022-09-06T10:00:47;6.57;;;1.85;;
17201;SDS011;8717;53.588;10.176;2022-09-06T10:03:33;4.22;;;1.42;;
17201;SDS011;8717;53.588;10.176;2022-09-06T10:06:00;4.07;;;1.83;;
17201;SDS011;8717;53.588;10.176;2022-09-06T10:08:29;3.42;;;1.33;;
17201;SDS011;8717;53.588;10.176;2022-09-06T10:10:57;7.22;;;1.90;;
17201;SDS011;8717;53.588;10.176;2022-09-06T10:13:25;2.53;;;1.45;;
17201;SDS011;8717;53.588;10.176;2022-09-06T10:15:54;7.43;;;1.77;;
17201;SDS011;8717;53.588;10.176;2022-09-06T10:18:27;6.95;;;1.70;;
17201;SDS011;8717;53.588;10.176;2022-09-06T10:20:56;3.08;;;1.65;;
17201;SDS011;8717;53.588;10.176;2022-09-06T10:23:31;3.92;;;1.55;;
17201;SDS011;8717;53.588;10.176;2022-09-06T10:26:04;4.53;;;1.60;;
17201;SDS011;8717;53.588;10.176;2022-09-06T10:28:33;3.25;;;1.70;;
17201;SDS011;8717;53.588;10.176;2022-09-06T10:37:24;2.42;;;1.60;;
17201;SDS011;8717;53.588;10.176;2022-09-06T10:40:04;4.68;;;2.10;;
17201;SDS011;8717;53.588;10.176;2022-09-06T10:42:34;5.13;;;1.80;;
17201;SDS011;8717;53.588;10.176;2022-09-06T10:45:15;4.35;;;1.80;;
17201;SDS011;8717;53.588;10.176;2022-09-06T10:47:54;2.88;;;1.58;;
17201;SDS011;8717;53.588;10.176;2022-09-06T10:50:27;6.53;;;1.63;;
17201;SDS011;8717;53.588;10.176;2022-09-06T10:53:02;3.97;;;1.50;;
17201;SDS011;8717;53.588;10.176;2022-09-06T10:55:35;4.20;;;1.73;;
17201;SDS011;8717;53.588;10.176;2022-09-06T10:58:05;2.03;;;1.48;;
17201;SDS011;8717;53.588;10.176;2022-09-06T11:00:34;3.47;;;1.58;;
17201;SDS011;8717;53.588;10.176;2022-09-06T11:03:06;3.20;;;1.30;;
17201;SDS011;8717;53.588;10.176;2022-09-06T11:05:42;4.28;;;1.27;;
17201;SDS011;8717;53.588;10.176;2022-09-06T11:08:12;1.85;;;1.30;;
17201;SDS011;8717;53.588;10.176;2022-09-06T11:10:48;3.80;;;1.30;;
17201;SDS011;8717;53.588;10.176;2022-09-06T11:13:20;3.85;;;1.50;;
17201;SDS011;8717;53.588;10.176;2022-09-06T11:15:50;2.47;;;1.35;;
17201;SDS011;8717;53.588;10.176;2022-09-06T11:18:33;2.25;;;1.15;;
17201;SDS011;8717;53.588;10.176;2022-09-06T11:21:09;3.10;;;1.38;;
17201;SDS011;8717;53.588;10.176;2022-09-06T11:23:56;4.35;;;1.48;;
17201;SDS011;8717;53.588;10.176;2022-09-06T11:26:34;8.95;;;1.80;;
17201;SDS011;8717;53.588;10.176;2022-09-06T11:29:07;3.78;;;1.30;;
17201;SDS011;8717;53.588;10.176;2022-09-06T11:31:48;4.93;;;1.23;;
17201;SDS011;8717;53.588;10.176;2022-09-06T11:34:21;3.75;;;1.50;;
17201;SDS011;8717;53.588;10.176;2022-09-06T11:36:51;3.78;;;1.30;;
17201;SDS011;8717;53.588;10.176;2022-09-06T11:39:23;2.95;;;1.58;;
17201;SDS011;8717;53.588;10.176;2022-09-06T11:41:53;2.03;;;1.27;;
17201;SDS011;8717;53.588;10.176;2022-09-06T11:47:33;3.67;;;1.30;;
17201;SDS011;8717;53.588;10.176;2022-09-06T11:53:14;2.08;;;1.35;;
17201;SDS011;8717;53.588;10.176;2022-09-06T11:55:42;5.15;;;1.60;;
17201;SDS011;8717;53.588;10.176;2022-09-06T11:58:18;3.08;;;1.58;;
17201;SDS011;8717;53.588;10.176;2022-09-06T12:04:00;2.53;;;1.52;;
17201;SDS011;8717;53.588;10.176;2022-09-06T12:06:29;4.10;;;1.70;;
17201;SDS011;8717;53.588;10.176;2022-09-06T12:09:00;4.60;;;1.70;;
17201;SDS011;8717;53.588;10.176;2022-09-06T12:11:47;1.98;;;1.30;;
17201;SDS011;8717;53.588;10.176;2022-09-06T12:14:25;5.47;;;1.33;;
17201;SDS011;8717;53.588;10.176;2022-09-06T12:19:50;4.05;;;1.40;;
17201;SDS011;8717;53.588;10.176;2022-09-06T12:28:24;5.50;;;1.67;;
17201;SDS011;8717;53.588;10.176;2022-09-06T12:30:58;7.63;;;1.90;;
17201;SDS011;8717;53.588;10.176;2022-09-06T12:33:26;5.55;;;1.77;;
17201;SDS011;8717;53.588;10.176;2022-09-06T12:36:10;5.65;;;1.42;;
17201;SDS011;8717;53.588;10.176;2022-09-06T12:38:38;4.78;;;1.80;;
17201;SDS011;8717;53.588;10.176;2022-09-06T12:41:06;3.08;;;1.42;;
17201;SDS011;8717;53.588;10.176;2022-09-06T12:43:33;3.42;;;1.33;;
17201;SDS011;8717;53.588;10.176;2022-09-06T12:46:04;4.45;;;1.70;;
17201;SDS011;8717;53.588;10.176;2022-09-06T12:48:32;5.72;;;1.92;;
17201;SDS011;8717;53.588;10.176;2022-09-06T12:51:05;2.83;;;1.33;;
17201;SDS011;8717;53.588;10.176;2022-09-06T12:53:33;2.92;;;1.40;;
17201;SDS011;8717;53.588;10.176;2022-09-06T12:56:01;4.15;;;1.70;;
17201;SDS011;8717;53.588;10.176;2022-09-06T12:58:31;3.60;;;1.70;;
17201;SDS011;8717;53.588;10.176;2022-09-06T13:01:04;5.82;;;1.70;;
17201;SDS011;8717;53.588;10.176;2022-09-06T13:03:37;5.10;;;2.38;;
17201;SDS011;8717;53.588;10.176;2022-09-06T13:06:15;4.68;;;1.92;;
17201;SDS011;8717;53.588;10.176;2022-09-06T13:08:45;4.50;;;1.73;;
17201;SDS011;8717;53.588;10.176;2022-09-06T13:11:15;3.60;;;1.38;;
17201;SDS011;8717;53.588;10.176;2022-09-06T13:13:52;3.53;;;1.48;;
17201;SDS011;8717;53.588;10.176;2022-09-06T13:16:20;3.75;;;1.67;;
17201;SDS011;8717;53.588;10.176;2022-09-06T13:18:48;3.25;;;1.60;;
17201;SDS011;8717;53.588;10.176;2022-09-06T13:21:23;2.63;;;1.55;;
17201;SDS011;8717;53.588;10.176;2022-09-06T13:23:52;4.80;;;1.80;;
17201;SDS011;8717;53.588;10.176;2022-09-06T13:26:30;3.90;;;1.42;;
17201;SDS011;8717;53.588;10.176;2022-09-06T13:29:08;7.60;;;1.65;;
17201;SDS011;8717;53.588;10.176;2022-09-06T13:31:48;2.92;;;1.60;;
17201;SDS011;8717;53.588;10.176;2022-09-06T13:34:19;2.63;;;1.50;;
17201;SDS011;8717;53.588;10.176;2022-09-06T13:36:48;3.15;;;1.30;;
17201;SDS011;8717;53.588;10.176;2022-09-06T13:39:29;5.85;;;1.58;;
17201;SDS011;8717;53.588;10.176;2022-09-06T13:41:59;4.57;;;1.92;;
17201;SDS011;8717;53.588;10.176;2022-09-06T13:44:30;7.63;;;1.60;;
17201;SDS011;8717;53.588;10.176;2022-09-06T13:46:57;11.20;;;2.25;;
17201;SDS011;8717;53.588;10.176;2022-09-06T13:49:24;2.47;;;1.60;;
17201;SDS011;8717;53.588;10.176;2022-09-06T13:51:52;4.70;;;1.60;;
17201;SDS011;8717;53.588;10.176;2022-09-06T13:54:20;6.38;;;1.60;;
17201;SDS011;8717;53.588;10.176;2022-09-06T13:56:47;5.03;;;1.65;;
17201;SDS011;8717;53.588;10.176;2022-09-06T13:59:15;5.57;;;1.50;;
17201;SDS011;8717;53.588;10.176;2022-09-06T14:01:44;6.03;;;1.90;;
17201;SDS011;8717;53.588;10.176;2022-09-06T14:04:13;4.00;;;1.40;;
17201;SDS011;8717;53.588;10.176;2022-09-06T14:06:43;6.25;;;2.05;;
17201;SDS011;8717;53.588;10.176;2022-09-06T14:09:13;1.73;;;1.35;;
17201;SDS011;8717;53.588;10.176;2022-09-06T14:11:42;3.47;;;1.50;;
17201;SDS011;8717;53.588;10.176;2022-09-06T14:14:09;3.53;;;1.42;;
17201;SDS011;8717;53.588;10.176;2022-09-06T14:16:36;3.17;;;1.80;;
17201;SDS011;8717;53.588;10.176;2022-09-06T14:19:04;2.40;;;1.60;;
17201;SDS011;8717;53.588;10.176;2022-09-06T14:21:31;3.15;;;1.90;;
17201;SDS011;8717;53.588;10.176;2022-09-06T14:23:58;4.95;;;1.70;;
17201;SDS011;8717;53.588;10.176;2022-09-06T14:26:25;5.72;;;1.55;;
17201;SDS011;8717;53.588;10.176;2022-09-06T14:28:53;4.63;;;1.60;;
17201;SDS011;8717;53.588;10.176;2022-09-06T14:31:21;4.88;;;1.65;;
17201;SDS011;8717;53.588;10.176;2022-09-06T14:33:49;5.72;;;1.67;;
17201;SDS011;8717;53.588;10.176;2022-09-06T14:36:18;6.25;;;2.10;;
17201;SDS011;8717;53.588;10.176;2022-09-06T14:38:46;5.07;;;1.60;;
17201;SDS011;8717;53.588;10.176;2022-09-06T14:41:14;2.72;;;1.45;;
17201;SDS011;8717;53.588;10.176;2022-09-06T14:43:42;5.20;;;1.73;;
17201;SDS011;8717;53.588;10.176;2022-09-06T14:46:13;5.05;;;1.60;;
17201;SDS011;8717;53.588;10.176;2022-09-06T14:48:41;4.75;;;1.80;;
17201;SDS011;8717;53.588;10.176;2022-09-06T14:51:08;4.72;;;1.85;;
17201;SDS011;8717;53.588;10.176;2022-09-06T14:53:38;3.53;;;1.40;;
17201;SDS011;8717;53.588;10.176;2022-09-06T14:56:05;4.35;;;1.55;;
17201;SDS011;8717;53.588;10.176;2022-09-06T14:58:33;4.95;;;1.60;;
17201;SDS011;8717;53.588;10.176;2022-09-06T15:01:08;5.60;;;1.77;;
17201;SDS011;8717;53.588;10.176;2022-09-06T15:03:37;2.88;;;1.52;;
17201;SDS011;8717;53.588;10.176;2022-09-06T15:06:05;3.70;;;1.70;;
17201;SDS011;8717;53.588;10.176;2022-09-06T15:08:33;4.30;;;1.65;;
17201;SDS011;8717;53.588;10.176;2022-09-06T15:11:01;4.05;;;1.80;;
17201;SDS011;8717;53.588;10.176;2022-09-06T15:13:28;4.32;;;1.65;;
17201;SDS011;8717;53.588;10.176;2022-09-06T15:15:55;4.57;;;1.52;;
17201;SDS011;8717;53.588;10.176;2022-09-06T15:18:22;3.00;;;1.38;;
17201;SDS011;8717;53.588;10.176;2022-09-06T15:20:48;4.00;;;1.70;;
17201;SDS011;8717;53.588;10.176;2022-09-06T15:23:15;6.47;;;1.50;;
17201;SDS011;8717;53.588;10.176;2022-09-06T15:25:46;4.35;;;1.40;;
17201;SDS011;8717;53.588;10.176;2022-09-06T15:28:14;3.03;;;1.58;;
17201;SDS011;8717;53.588;10.176;2022-09-06T15:30:42;3.80;;;1.65;;
17201;SDS011;8717;53.588;10.176;2022-09-06T15:33:09;3.30;;;1.80;;